Terminal Aerodrome Forecast
Issued by NWS Shreveport, LA

Home | Current Version | Previous Version | Text Only | Print | Product List | Glossary On
Versions: 1 2 3 4 5 6 7 8 9 10 11 12 13
000
FTUS44 KSHV 291700
TAFTXK
TAF
KTXK 291740Z 2918/3018 31006KT P6SM SCT150
     FM292100 34010G18KT P6SM BKN150
     FM300300 01006KT P6SM SCT250
     FM300900 03003KT P6SM SKC
     FM301500 06008KT P6SM SKC=

USA.gov is the U.S. government's official web portal to all federal, state and local government web resources and services.